sensor_id;sensor_type;location;lat;lon;timestamp;P1;durP1;ratioP1;P2;durP2;ratioP2
2564;SDS011;1292;48.020;7.822;2023-03-14T06:47:27;1.27;;;0.50;;
2564;SDS011;1292;48.020;7.822;2023-03-14T06:49:54;0.50;;;0.50;;
2564;SDS011;1292;48.020;7.822;2023-03-14T06:52:22;1.63;;;0.50;;
2564;SDS011;1292;48.020;7.822;2023-03-14T06:54:49;0.70;;;0.60;;
2564;SDS011;1292;48.020;7.822;2023-03-14T06:57:16;0.90;;;0.70;;
2564;SDS011;1292;48.020;7.822;2023-03-14T06:59:43;2.20;;;0.60;;
2564;SDS011;1292;48.020;7.822;2023-03-14T07:02:10;1.10;;;0.80;;
2564;SDS011;1292;48.020;7.822;2023-03-14T07:04:39;0.70;;;0.50;;
2564;SDS011;1292;48.020;7.822;2023-03-14T07:07:06;3.07;;;0.97;;
2564;SDS011;1292;48.020;7.822;2023-03-14T07:09:33;2.23;;;0.70;;
2564;SDS011;1292;48.020;7.822;2023-03-14T07:12:00;1.90;;;0.70;;
2564;SDS011;1292;48.020;7.822;2023-03-14T07:14:28;1.63;;;0.70;;
2564;SDS011;1292;48.020;7.822;2023-03-14T07:16:55;0.70;;;0.70;;
2564;SDS011;1292;48.020;7.822;2023-03-14T07:19:22;0.60;;;0.53;;
2564;SDS011;1292;48.020;7.822;2023-03-14T07:21:51;3.10;;;0.70;;
2564;SDS011;1292;48.020;7.822;2023-03-14T07:24:18;2.00;;;0.77;;
2564;SDS011;1292;48.020;7.822;2023-03-14T07:26:44;0.60;;;0.50;;
2564;SDS011;1292;48.020;7.822;2023-03-14T07:29:11;0.53;;;0.40;;
2564;SDS011;1292;48.020;7.822;2023-03-14T07:31:38;0.80;;;0.57;;
2564;SDS011;1292;48.020;7.822;2023-03-14T07:34:05;0.83;;;0.50;;
2564;SDS011;1292;48.020;7.822;2023-03-14T07:36:32;1.10;;;0.50;;
2564;SDS011;1292;48.020;7.822;2023-03-14T07:39:00;1.80;;;0.50;;
2564;SDS011;1292;48.020;7.822;2023-03-14T07:41:27;0.80;;;0.60;;
2564;SDS011;1292;48.020;7.822;2023-03-14T07:43:54;2.63;;;0.60;;
2564;SDS011;1292;48.020;7.822;2023-03-14T07:46:20;1.00;;;0.60;;
2564;SDS011;1292;48.020;7.822;2023-03-14T07:48:47;0.60;;;0.57;;
2564;SDS011;1292;48.020;7.822;2023-03-14T07:51:14;0.50;;;0.50;;
2564;SDS011;1292;48.020;7.822;2023-03-14T07:53:41;1.10;;;0.57;;
2564;SDS011;1292;48.020;7.822;2023-03-14T07:56:10;0.50;;;0.40;;
2564;SDS011;1292;48.020;7.822;2023-03-14T07:58:37;1.00;;;0.63;;
2564;SDS011;1292;48.020;7.822;2023-03-14T08:01:04;1.50;;;0.80;;
2564;SDS011;1292;48.020;7.822;2023-03-14T08:03:31;0.80;;;0.73;;
2564;SDS011;1292;48.020;7.822;2023-03-14T08:05:58;0.60;;;0.40;;
2564;SDS011;1292;48.020;7.822;2023-03-14T08:08:24;1.03;;;0.57;;
2564;SDS011;1292;48.020;7.822;2023-03-14T08:10:51;4.03;;;0.80;;
2564;SDS011;1292;48.020;7.822;2023-03-14T08:13:19;1.27;;;0.70;;
2564;SDS011;1292;48.020;7.822;2023-03-14T08:15:48;0.80;;;0.60;;
2564;SDS011;1292;48.020;7.822;2023-03-14T08:18:16;1.67;;;0.60;;
2564;SDS011;1292;48.020;7.822;2023-03-14T08:20:42;0.77;;;0.70;;
2564;SDS011;1292;48.020;7.822;2023-03-14T08:23:09;3.30;;;0.90;;
2564;SDS011;1292;48.020;7.822;2023-03-14T08:25:37;0.60;;;0.50;;
2564;SDS011;1292;48.020;7.822;2023-03-14T08:28:04;0.97;;;0.60;;
2564;SDS011;1292;48.020;7.822;2023-03-14T08:30:32;1.00;;;0.90;;
2564;SDS011;1292;48.020;7.822;2023-03-14T08:32:59;1.40;;;0.73;;
2564;SDS011;1292;48.020;7.822;2023-03-14T08:35:26;1.87;;;0.60;;
2564;SDS011;1292;48.020;7.822;2023-03-14T08:37:53;3.03;;;0.63;;
2564;SDS011;1292;48.020;7.822;2023-03-14T08:40:20;0.70;;;0.57;;
2564;SDS011;1292;48.020;7.822;2023-03-14T08:42:47;0.60;;;0.50;;
2564;SDS011;1292;48.020;7.822;2023-03-14T08:45:15;2.63;;;0.63;;
2564;SDS011;1292;48.020;7.822;2023-03-14T08:47:43;3.17;;;0.60;;
2564;SDS011;1292;48.020;7.822;2023-03-14T08:50:11;1.10;;;0.60;;
2564;SDS011;1292;48.020;7.822;2023-03-14T08:52:38;2.20;;;0.93;;
2564;SDS011;1292;48.020;7.822;2023-03-14T08:55:06;1.97;;;0.77;;
2564;SDS011;1292;48.020;7.822;2023-03-14T08:57:34;1.63;;;0.60;;
2564;SDS011;1292;48.020;7.822;2023-03-14T09:00:02;0.47;;;0.47;;
2564;SDS011;1292;48.020;7.822;2023-03-14T09:02:33;0.83;;;0.70;;
2564;SDS011;1292;48.020;7.822;2023-03-14T09:05:02;0.50;;;0.50;;
2564;SDS011;1292;48.020;7.822;2023-03-14T09:07:29;0.70;;;0.67;;
2564;SDS011;1292;48.020;7.822;2023-03-14T09:09:56;1.13;;;0.87;;
2564;SDS011;1292;48.020;7.822;2023-03-14T09:12:22;3.23;;;0.80;;
2564;SDS011;1292;48.020;7.822;2023-03-14T09:14:49;1.37;;;0.80;;
2564;SDS011;1292;48.020;7.822;2023-03-14T09:17:16;0.90;;;0.70;;
2564;SDS011;1292;48.020;7.822;2023-03-14T09:19:43;3.80;;;1.27;;
2564;SDS011;1292;48.020;7.822;2023-03-14T09:22:11;0.60;;;0.50;;
2564;SDS011;1292;48.020;7.822;2023-03-14T09:24:39;1.53;;;1.00;;
2564;SDS011;1292;48.020;7.822;2023-03-14T09:27:06;13.93;;;2.50;;
2564;SDS011;1292;48.020;7.822;2023-03-14T09:29:33;0.73;;;0.50;;
2564;SDS011;1292;48.020;7.822;2023-03-14T09:32:00;0.90;;;0.70;;
2564;SDS011;1292;48.020;7.822;2023-03-14T09:34:27;0.50;;;0.50;;
2564;SDS011;1292;48.020;7.822;2023-03-14T09:36:54;1.13;;;0.57;;
2564;SDS011;1292;48.020;7.822;2023-03-14T09:39:22;0.50;;;0.50;;
2564;SDS011;1292;48.020;7.822;2023-03-14T09:41:49;1.03;;;0.63;;
2564;SDS011;1292;48.020;7.822;2023-03-14T09:44:19;0.67;;;0.50;;
2564;SDS011;1292;48.020;7.822;2023-03-14T09:46:51;2.30;;;0.80;;
2564;SDS011;1292;48.020;7.822;2023-03-14T09:49:21;0.60;;;0.60;;
2564;SDS011;1292;48.020;7.822;2023-03-14T09:51:52;1.03;;;0.60;;
2564;SDS011;1292;48.020;7.822;2023-03-14T09:54:29;1.00;;;0.90;;
2564;SDS011;1292;48.020;7.822;2023-03-14T09:56:58;0.50;;;0.50;;
2564;SDS011;1292;48.020;7.822;2023-03-14T09:59:25;1.43;;;0.80;;
2564;SDS011;1292;48.020;7.822;2023-03-14T10:01:55;0.70;;;0.60;;
2564;SDS011;1292;48.020;7.822;2023-03-14T10:04:24;0.80;;;0.53;;
2564;SDS011;1292;48.020;7.822;2023-03-14T10:06:52;0.70;;;0.70;;
2564;SDS011;1292;48.020;7.822;2023-03-14T10:09:20;1.07;;;0.97;;
2564;SDS011;1292;48.020;7.822;2023-03-14T10:11:52;1.20;;;0.90;;
2564;SDS011;1292;48.020;7.822;2023-03-14T10:14:31;0.47;;;0.40;;
2564;SDS011;1292;48.020;7.822;2023-03-14T10:17:06;0.83;;;0.60;;
2564;SDS011;1292;48.020;7.822;2023-03-14T10:19:34;0.70;;;0.57;;
2564;SDS011;1292;48.020;7.822;2023-03-14T10:22:03;1.17;;;0.77;;
2564;SDS011;1292;48.020;7.822;2023-03-14T10:24:31;4.43;;;0.70;;
2564;SDS011;1292;48.020;7.822;2023-03-14T10:27:01;1.97;;;0.50;;
2564;SDS011;1292;48.020;7.822;2023-03-14T10:29:29;0.90;;;0.63;;
2564;SDS011;1292;48.020;7.822;2023-03-14T10:31:58;0.50;;;0.40;;
2564;SDS011;1292;48.020;7.822;2023-03-14T10:34:27;1.07;;;0.50;;
2564;SDS011;1292;48.020;7.822;2023-03-14T10:36:56;0.80;;;0.50;;
2564;SDS011;1292;48.020;7.822;2023-03-14T10:39:26;1.90;;;1.03;;
2564;SDS011;1292;48.020;7.822;2023-03-14T10:42:03;4.63;;;0.70;;
2564;SDS011;1292;48.020;7.822;2023-03-14T10:44:31;0.50;;;0.40;;
2564;SDS011;1292;48.020;7.822;2023-03-14T10:47:00;0.60;;;0.30;;
2564;SDS011;1292;48.020;7.822;2023-03-14T10:49:29;0.60;;;0.57;;
2564;SDS011;1292;48.020;7.822;2023-03-14T10:52:01;0.70;;;0.40;;
2564;SDS011;1292;48.020;7.822;2023-03-14T10:54:38;1.10;;;0.93;;
2564;SDS011;1292;48.020;7.822;2023-03-14T10:57:06;0.83;;;0.53;;
2564;SDS011;1292;48.020;7.822;2023-03-14T10:59:34;0.90;;;0.47;;
2564;SDS011;1292;48.020;7.822;2023-03-14T11:02:03;0.53;;;0.40;;
2564;SDS011;1292;48.020;7.822;2023-03-14T11:04:44;1.00;;;0.57;;
2564;SDS011;1292;48.020;7.822;2023-03-14T11:07:22;1.90;;;0.50;;
2564;SDS011;1292;48.020;7.822;2023-03-14T11:09:56;1.17;;;0.53;;
2564;SDS011;1292;48.020;7.822;2023-03-14T11:12:32;0.60;;;0.57;;
2564;SDS011;1292;48.020;7.822;2023-03-14T11:15:11;0.80;;;0.57;;
2564;SDS011;1292;48.020;7.822;2023-03-14T11:17:48;0.60;;;0.53;;
2564;SDS011;1292;48.020;7.822;2023-03-14T11:20:31;0.90;;;0.60;;
2564;SDS011;1292;48.020;7.822;2023-03-14T11:23:04;7.00;;;0.70;;
2564;SDS011;1292;48.020;7.822;2023-03-14T11:25:37;7.07;;;1.17;;
2564;SDS011;1292;48.020;7.822;2023-03-14T11:28:17;1.10;;;0.77;;
2564;SDS011;1292;48.020;7.822;2023-03-14T11:30:50;2.73;;;1.03;;
2564;SDS011;1292;48.020;7.822;2023-03-14T11:33:18;1.33;;;0.80;;
2564;SDS011;1292;48.020;7.822;2023-03-14T11:35:52;0.93;;;0.50;;
2564;SDS011;1292;48.020;7.822;2023-03-14T11:38:34;0.80;;;0.57;;
2564;SDS011;1292;48.020;7.822;2023-03-14T11:41:09;0.63;;;0.37;;
2564;SDS011;1292;48.020;7.822;2023-03-14T11:43:41;0.50;;;0.50;;
2564;SDS011;1292;48.020;7.822;2023-03-14T11:46:14;1.17;;;0.60;;
2564;SDS011;1292;48.020;7.822;2023-03-14T11:48:44;0.63;;;0.50;;
2564;SDS011;1292;48.020;7.822;2023-03-14T11:51:20;0.40;;;0.30;;
2564;SDS011;1292;48.020;7.822;2023-03-14T11:53:51;1.27;;;0.70;;
2564;SDS011;1292;48.020;7.822;2023-03-14T11:56:25;0.87;;;0.40;;
2564;SDS011;1292;48.020;7.822;2023-03-14T11:58:59;0.70;;;0.50;;
2564;SDS011;1292;48.020;7.822;2023-03-14T12:01:36;0.60;;;0.50;;
2564;SDS011;1292;48.020;7.822;2023-03-14T12:04:13;0.40;;;0.40;;
2564;SDS011;1292;48.020;7.822;2023-03-14T12:06:46;2.10;;;0.73;;
2564;SDS011;1292;48.020;7.822;2023-03-14T12:09:16;1.00;;;1.00;;
2564;SDS011;1292;48.020;7.822;2023-03-14T12:11:44;0.80;;;0.60;;
2564;SDS011;1292;48.020;7.822;2023-03-14T12:14:20;1.33;;;0.60;;
2564;SDS011;1292;48.020;7.822;2023-03-14T12:16:52;0.63;;;0.50;;
2564;SDS011;1292;48.020;7.822;2023-03-14T12:19:26;0.67;;;0.50;;
2564;SDS011;1292;48.020;7.822;2023-03-14T12:22:07;0.53;;;0.40;;
2564;SDS011;1292;48.020;7.822;2023-03-14T12:24:50;0.40;;;0.40;;
2564;SDS011;1292;48.020;7.822;2023-03-14T12:30:15;0.60;;;0.50;;
2564;SDS011;1292;48.020;7.822;2023-03-14T12:35:46;0.60;;;0.60;;
2564;SDS011;1292;48.020;7.822;2023-03-14T12:38:15;0.77;;;0.70;;
2564;SDS011;1292;48.020;7.822;2023-03-14T12:40:47;0.60;;;0.60;;
2564;SDS011;1292;48.020;7.822;2023-03-14T12:43:24;1.67;;;0.80;;
2564;SDS011;1292;48.020;7.822;2023-03-14T12:46:14;0.90;;;0.70;;
2564;SDS011;1292;48.020;7.822;2023-03-14T12:48:46;1.10;;;0.60;;
2564;SDS011;1292;48.020;7.822;2023-03-14T12:51:15;1.97;;;0.70;;
2564;SDS011;1292;48.020;7.822;2023-03-14T12:53:53;0.70;;;0.70;;
2564;SDS011;1292;48.020;7.822;2023-03-14T12:56:50;2.30;;;0.77;;
2564;SDS011;1292;48.020;7.822;2023-03-14T12:59:36;1.27;;;0.40;;
2564;SDS011;1292;48.020;7.822;2023-03-14T13:05:09;1.07;;;0.60;;
2564;SDS011;1292;48.020;7.822;2023-03-14T13:10:31;0.50;;;0.40;;
2564;SDS011;1292;48.020;7.822;2023-03-14T13:13:11;0.60;;;0.60;;
2564;SDS011;1292;48.020;7.822;2023-03-14T13:15:44;0.80;;;0.50;;
2564;SDS011;1292;48.020;7.822;2023-03-14T13:18:14;0.70;;;0.57;;
2564;SDS011;1292;48.020;7.822;2023-03-14T13:20:44;1.10;;;0.50;;
2564;SDS011;1292;48.020;7.822;2023-03-14T13:23:21;1.07;;;0.97;;
2564;SDS011;1292;48.020;7.822;2023-03-14T13:25:48;0.97;;;0.60;;
2564;SDS011;1292;48.020;7.822;2023-03-14T13:28:15;0.93;;;0.60;;
2564;SDS011;1292;48.020;7.822;2023-03-14T13:30:44;0.70;;;0.60;;
2564;SDS011;1292;48.020;7.822;2023-03-14T13:33:15;0.70;;;0.50;;
2564;SDS011;1292;48.020;7.822;2023-03-14T13:35:44;0.50;;;0.43;;
2564;SDS011;1292;48.020;7.822;2023-03-14T13:38:15;1.27;;;0.50;;
2564;SDS011;1292;48.020;7.822;2023-03-14T13:40:44;1.90;;;0.50;;
2564;SDS011;1292;48.020;7.822;2023-03-14T13:43:14;1.23;;;0.50;;
2564;SDS011;1292;48.020;7.822;2023-03-14T13:45:48;0.50;;;0.50;;
2564;SDS011;1292;48.020;7.822;2023-03-14T13:48:18;1.07;;;0.80;;
2564;SDS011;1292;48.020;7.822;2023-03-14T13:50:49;2.80;;;0.67;;
2564;SDS011;1292;48.020;7.822;2023-03-14T13:53:20;1.70;;;0.80;;
2564;SDS011;1292;48.020;7.822;2023-03-14T13:55:48;3.47;;;2.90;;
2564;SDS011;1292;48.020;7.822;2023-03-14T13:58:23;1.97;;;1.47;;
2564;SDS011;1292;48.020;7.822;2023-03-14T14:00:56;1.30;;;1.20;;
2564;SDS011;1292;48.020;7.822;2023-03-14T14:03:39;4.10;;;0.80;;
2564;SDS011;1292;48.020;7.822;2023-03-14T14:06:09;0.60;;;0.60;;
2564;SDS011;1292;48.020;7.822;2023-03-14T14:08:43;2.17;;;0.90;;
2564;SDS011;1292;48.020;7.822;2023-03-14T14:11:12;1.17;;;0.70;;
2564;SDS011;1292;48.020;7.822;2023-03-14T14:13:47;1.13;;;0.60;;
2564;SDS011;1292;48.020;7.822;2023-03-14T14:16:15;2.93;;;0.90;;
2564;SDS011;1292;48.020;7.822;2023-03-14T14:18:47;4.13;;;1.20;;
2564;SDS011;1292;48.020;7.822;2023-03-14T14:21:14;2.80;;;1.63;;
2564;SDS011;1292;48.020;7.822;2023-03-14T14:23:41;5.73;;;2.87;;
2564;SDS011;1292;48.020;7.822;2023-03-14T14:26:13;3.33;;;1.90;;
2564;SDS011;1292;48.020;7.822;2023-03-14T14:28:42;5.30;;;3.33;;
2564;SDS011;1292;48.020;7.822;2023-03-14T14:31:18;2.30;;;1.37;;
2564;SDS011;1292;48.020;7.822;2023-03-14T14:33:54;1.03;;;0.60;;
2564;SDS011;1292;48.020;7.822;2023-03-14T14:36:23;4.40;;;1.37;;
2564;SDS011;1292;48.020;7.822;2023-03-14T14:38:52;3.20;;;1.63;;
2564;SDS011;1292;48.020;7.822;2023-03-14T14:41:26;4.07;;;2.27;;
2564;SDS011;1292;48.020;7.822;2023-03-14T14:43:55;1.80;;;1.50;;
2564;SDS011;1292;48.020;7.822;2023-03-14T14:46:22;2.20;;;1.03;;
2564;SDS011;1292;48.020;7.822;2023-03-14T14:48:56;1.17;;;1.07;;
2564;SDS011;1292;48.020;7.822;2023-03-14T14:51:31;1.27;;;0.80;;
2564;SDS011;1292;48.020;7.822;2023-03-14T14:54:01;2.03;;;0.80;;
2564;SDS011;1292;48.020;7.822;2023-03-14T14:56:34;2.40;;;0.80;;
2564;SDS011;1292;48.020;7.822;2023-03-14T14:59:02;1.10;;;0.97;;
2564;SDS011;1292;48.020;7.822;2023-03-14T15:01:32;7.37;;;0.90;;
2564;SDS011;1292;48.020;7.822;2023-03-14T15:04:01;2.83;;;1.30;;
2564;SDS011;1292;48.020;7.822;2023-03-14T15:06:36;2.00;;;1.03;;
2564;SDS011;1292;48.020;7.822;2023-03-14T15:09:03;4.20;;;1.30;;
2564;SDS011;1292;48.020;7.822;2023-03-14T15:11:31;1.53;;;0.67;;
2564;SDS011;1292;48.020;7.822;2023-03-14T15:13:58;3.40;;;0.83;;
2564;SDS011;1292;48.020;7.822;2023-03-14T15:16:27;5.50;;;1.20;;
2564;SDS011;1292;48.020;7.822;2023-03-14T15:18:56;2.27;;;0.87;;
2564;SDS011;1292;48.020;7.822;2023-03-14T15:21:25;1.47;;;1.03;;
2564;SDS011;1292;48.020;7.822;2023-03-14T15:23:53;1.30;;;1.20;;
2564;SDS011;1292;48.020;7.822;2023-03-14T15:26:21;2.30;;;0.87;;
2564;SDS011;1292;48.020;7.822;2023-03-14T15:28:49;5.47;;;1.37;;
2564;SDS011;1292;48.020;7.822;2023-03-14T15:31:16;5.93;;;1.30;;
2564;SDS011;1292;48.020;7.822;2023-03-14T15:33:46;2.67;;;0.97;;
2564;SDS011;1292;48.020;7.822;2023-03-14T15:36:16;3.50;;;1.50;;
2564;SDS011;1292;48.020;7.822;2023-03-14T15:38:49;8.37;;;2.80;;
2564;SDS011;1292;48.020;7.822;2023-03-14T15:41:16;4.60;;;1.70;;
2564;SDS011;1292;48.020;7.822;2023-03-14T15:43:44;2.70;;;1.87;;
2564;SDS011;1292;48.020;7.822;2023-03-14T15:46:11;3.03;;;1.33;;
2564;SDS011;1292;48.020;7.822;2023-03-14T15:48:39;2.27;;;1.10;;
2564;SDS011;1292;48.020;7.822;2023-03-14T15:51:06;1.30;;;1.07;;
2564;SDS011;1292;48.020;7.822;2023-03-14T15:53:33;1.70;;;0.67;;
2564;SDS011;1292;48.020;7.822;2023-03-14T15:56:03;3.40;;;1.60;;
2564;SDS011;1292;48.020;7.822;2023-03-14T15:58:31;1.20;;;0.70;;
2564;SDS011;1292;48.020;7.822;2023-03-14T16:00:59;1.20;;;0.70;;
2564;SDS011;1292;48.020;7.822;2023-03-14T16:03:26;0.90;;;0.80;;
2564;SDS011;1292;48.020;7.822;2023-03-14T16:05:53;3.43;;;0.93;;
2564;SDS011;1292;48.020;7.822;2023-03-14T16:08:20;1.10;;;0.57;;
2564;SDS011;1292;48.020;7.822;2023-03-14T16:10:47;4.43;;;2.30;;
2564;SDS011;1292;48.020;7.822;2023-03-14T16:13:16;1.83;;;1.20;;
2564;SDS011;1292;48.020;7.822;2023-03-14T16:15:51;4.40;;;1.47;;
2564;SDS011;1292;48.020;7.822;2023-03-14T16:18:19;2.50;;;1.63;;
2564;SDS011;1292;48.020;7.822;2023-03-14T16:20:50;4.30;;;1.97;;
2564;SDS011;1292;48.020;7.822;2023-03-14T16:23:18;2.77;;;1.07;;
2564;SDS011;1292;48.020;7.822;2023-03-14T16:25:45;3.33;;;2.10;;
2564;SDS011;1292;48.020;7.822;2023-03-14T16:28:12;4.27;;;2.67;;
2564;SDS011;1292;48.020;7.822;2023-03-14T16:30:40;4.20;;;1.70;;
2564;SDS011;1292;48.020;7.822;2023-03-14T16:33:07;3.83;;;1.97;;
2564;SDS011;1292;48.020;7.822;2023-03-14T16:35:35;2.97;;;1.60;;
2564;SDS011;1292;48.020;7.822;2023-03-14T16:38:03;3.60;;;2.50;;
2564;SDS011;1292;48.020;7.822;2023-03-14T16:40:30;0.80;;;0.70;;
2564;SDS011;1292;48.020;7.822;2023-03-14T16:42:57;1.77;;;0.57;;
2564;SDS011;1292;48.020;7.822;2023-03-14T16:45:24;1.83;;;0.50;;
2564;SDS011;1292;48.020;7.822;2023-03-14T16:47:52;0.80;;;0.60;;
2564;SDS011;1292;48.020;7.822;2023-03-14T16:50:19;2.00;;;0.53;;
2564;SDS011;1292;48.020;7.822;2023-03-14T16:52:46;1.20;;;1.07;;
2564;SDS011;1292;48.020;7.822;2023-03-14T16:55:13;1.03;;;0.70;;
2564;SDS011;1292;48.020;7.822;2023-03-14T16:57:40;1.20;;;0.70;;
2564;SDS011;1292;48.020;7.822;2023-03-14T17:00:08;1.83;;;0.70;;
2564;SDS011;1292;48.020;7.822;2023-03-14T17:02:36;1.97;;;1.40;;
2564;SDS011;1292;48.020;7.822;2023-03-14T17:05:05;1.43;;;1.23;;
2564;SDS011;1292;48.020;7.822;2023-03-14T17:07:32;3.37;;;1.37;;
2564;SDS011;1292;48.020;7.822;2023-03-14T17:09:59;1.67;;;0.80;;
2564;SDS011;1292;48.020;7.822;2023-03-14T17:12:26;1.00;;;0.67;;
2564;SDS011;1292;48.020;7.822;2023-03-14T17:14:53;0.40;;;0.30;;
2564;SDS011;1292;48.020;7.822;2023-03-14T17:17:20;3.33;;;0.83;;
2564;SDS011;1292;48.020;7.822;2023-03-14T17:19:47;1.27;;;0.80;;
2564;SDS011;1292;48.020;7.822;2023-03-14T17:22:15;0.80;;;0.63;;
2564;SDS011;1292;48.020;7.822;2023-03-14T17:24:42;0.70;;;0.60;;
2564;SDS011;1292;48.020;7.822;2023-03-14T17:27:09;1.10;;;0.73;;
2564;SDS011;1292;48.020;7.822;2023-03-14T17:29:37;1.90;;;0.93;;
2564;SDS011;1292;48.020;7.822;2023-03-14T17:32:04;3.17;;;1.50;;
2564;SDS011;1292;48.020;7.822;2023-03-14T17:34:31;1.47;;;0.50;;
2564;SDS011;1292;48.020;7.822;2023-03-14T17:36:58;1.37;;;1.00;;
2564;SDS011;1292;48.020;7.822;2023-03-14T17:39:26;2.57;;;1.20;;
2564;SDS011;1292;48.020;7.822;2023-03-14T17:41:53;4.07;;;2.60;;
2564;SDS011;1292;48.020;7.822;2023-03-14T17:46:57;2.83;;;1.10;;
2564;SDS011;1292;48.020;7.822;2023-03-14T17:49:24;1.73;;;0.90;;
2564;SDS011;1292;48.020;7.822;2023-03-14T17:51:50;0.50;;;0.40;;
2564;SDS011;1292;48.020;7.822;2023-03-14T17:54:17;1.70;;;0.80;;
2564;SDS011;1292;48.020;7.822;2023-03-14T17:56:45;1.90;;;0.70;;
2564;SDS011;1292;48.020;7.822;2023-03-14T17:59:13;0.73;;;0.63;;
2564;SDS011;1292;48.020;7.822;2023-03-14T18:01:40;3.03;;;1.43;;
2564;SDS011;1292;48.020;7.822;2023-03-14T18:04:07;2.63;;;1.30;;
2564;SDS011;1292;48.020;7.822;2023-03-14T18:06:34;4.93;;;3.17;;
2564;SDS011;1292;48.020;7.822;2023-03-14T18:09:01;6.43;;;2.90;;
2564;SDS011;1292;48.020;7.822;2023-03-14T18:11:29;4.47;;;3.30;;
2564;SDS011;1292;48.020;7.822;2023-03-14T18:13:58;5.50;;;2.37;;
2564;SDS011;1292;48.020;7.822;2023-03-14T18:16:28;4.00;;;1.70;;
2564;SDS011;1292;48.020;7.822;2023-03-14T18:18:56;4.10;;;2.50;;
2564;SDS011;1292;48.020;7.822;2023-03-14T18:21:24;4.10;;;1.37;;
2564;SDS011;1292;48.020;7.822;2023-03-14T18:23:53;1.47;;;1.37;;
2564;SDS011;1292;48.020;7.822;2023-03-14T18:26:20;2.53;;;1.20;;
2564;SDS011;1292;48.020;7.822;2023-03-14T18:28:49;2.27;;;1.47;;
2564;SDS011;1292;48.020;7.822;2023-03-14T18:31:17;2.20;;;1.30;;
2564;SDS011;1292;48.020;7.822;2023-03-14T18:33:46;3.40;;;1.53;;
2564;SDS011;1292;48.020;7.822;2023-03-14T18:36:13;3.00;;;1.53;;
2564;SDS011;1292;48.020;7.822;2023-03-14T18:38:40;7.90;;;5.57;;
2564;SDS011;1292;48.020;7.822;2023-03-14T18:41:07;4.00;;;3.60;;
2564;SDS011;1292;48.020;7.822;2023-03-14T18:43:36;3.90;;;2.30;;
2564;SDS011;1292;48.020;7.822;2023-03-14T18:46:03;4.13;;;2.63;;
2564;SDS011;1292;48.020;7.822;2023-03-14T18:48:31;1.60;;;1.50;;
2564;SDS011;1292;48.020;7.822;2023-03-14T18:50:59;2.87;;;1.93;;
2564;SDS011;1292;48.020;7.822;2023-03-14T18:53:26;3.43;;;2.00;;
2564;SDS011;1292;48.020;7.822;2023-03-14T18:55:56;4.57;;;2.30;;
2564;SDS011;1292;48.020;7.822;2023-03-14T18:58:23;2.30;;;2.10;;
2564;SDS011;1292;48.020;7.822;2023-03-14T19:00:54;2.50;;;2.30;;
2564;SDS011;1292;48.020;7.822;2023-03-14T19:03:22;3.53;;;2.07;;
2564;SDS011;1292;48.020;7.822;2023-03-14T19:05:52;3.43;;;2.50;;
2564;SDS011;1292;48.020;7.822;2023-03-14T19:08:20;3.87;;;3.57;;
2564;SDS011;1292;48.020;7.822;2023-03-14T19:10:48;5.97;;;3.97;;
2564;SDS011;1292;48.020;7.822;2023-03-14T19:13:16;4.90;;;4.40;;
2564;SDS011;1292;48.020;7.822;2023-03-14T19:15:43;5.73;;;3.63;;
2564;SDS011;1292;48.020;7.822;2023-03-14T19:18:10;5.90;;;5.10;;
2564;SDS011;1292;48.020;7.822;2023-03-14T19:20:37;12.63;;;6.40;;
2564;SDS011;1292;48.020;7.822;2023-03-14T19:23:06;11.20;;;5.83;;
2564;SDS011;1292;48.020;7.822;2023-03-14T19:25:33;8.57;;;4.80;;
2564;SDS011;1292;48.020;7.822;2023-03-14T19:28:00;6.00;;;3.50;;
2564;SDS011;1292;48.020;7.822;2023-03-14T19:30:27;10.00;;;3.13;;
2564;SDS011;1292;48.020;7.822;2023-03-14T19:32:54;4.80;;;3.10;;
2564;SDS011;1292;48.020;7.822;2023-03-14T19:35:21;7.50;;;3.30;;
2564;SDS011;1292;48.020;7.822;2023-03-14T19:37:48;3.43;;;2.33;;
2564;SDS011;1292;48.020;7.822;2023-03-14T19:40:16;4.60;;;2.10;;
2564;SDS011;1292;48.020;7.822;2023-03-14T19:42:43;2.53;;;2.00;;
2564;SDS011;1292;48.020;7.822;2023-03-14T19:45:10;3.80;;;1.80;;
2564;SDS011;1292;48.020;7.822;2023-03-14T19:47:37;2.80;;;1.93;;
2564;SDS011;1292;48.020;7.822;2023-03-14T19:50:05;2.17;;;1.97;;
2564;SDS011;1292;48.020;7.822;2023-03-14T19:52:32;1.70;;;1.47;;
2564;SDS011;1292;48.020;7.822;2023-03-14T19:54:59;1.80;;;1.57;;
2564;SDS011;1292;48.020;7.822;2023-03-14T19:57:27;1.63;;;1.20;;
2564;SDS011;1292;48.020;7.822;2023-03-14T19:59:54;3.07;;;1.40;;
2564;SDS011;1292;48.020;7.822;2023-03-14T20:02:21;3.13;;;1.40;;
2564;SDS011;1292;48.020;7.822;2023-03-14T20:04:48;2.80;;;1.60;;
2564;SDS011;1292;48.020;7.822;2023-03-14T20:07:18;6.33;;;1.80;;
2564;SDS011;1292;48.020;7.822;2023-03-14T20:09:45;1.20;;;1.10;;
2564;SDS011;1292;48.020;7.822;2023-03-14T20:12:12;1.30;;;1.10;;
2564;SDS011;1292;48.020;7.822;2023-03-14T20:14:40;3.67;;;1.83;;
2564;SDS011;1292;48.020;7.822;2023-03-14T20:17:07;3.07;;;1.80;;
2564;SDS011;1292;48.020;7.822;2023-03-14T20:19:34;3.97;;;1.20;;
2564;SDS011;1292;48.020;7.822;2023-03-14T20:22:01;2.90;;;1.80;;
2564;SDS011;1292;48.020;7.822;2023-03-14T20:24:28;2.63;;;1.27;;
2564;SDS011;1292;48.020;7.822;2023-03-14T20:26:56;1.80;;;1.43;;
2564;SDS011;1292;48.020;7.822;2023-03-14T20:29:23;2.73;;;1.60;;
2564;SDS011;1292;48.020;7.822;2023-03-14T20:31:51;4.23;;;1.50;;
2564;SDS011;1292;48.020;7.822;2023-03-14T20:34:18;3.20;;;1.50;;
2564;SDS011;1292;48.020;7.822;2023-03-14T20:36:45;1.80;;;1.70;;
2564;SDS011;1292;48.020;7.822;2023-03-14T20:39:12;1.67;;;0.83;;
2564;SDS011;1292;48.020;7.822;2023-03-14T20:41:40;3.70;;;1.07;;
2564;SDS011;1292;48.020;7.822;2023-03-14T20:44:07;1.70;;;1.00;;
2564;SDS011;1292;48.020;7.822;2023-03-14T20:46:35;2.17;;;1.23;;
2564;SDS011;1292;48.020;7.822;2023-03-14T20:49:03;2.40;;;0.80;;
2564;SDS011;1292;48.020;7.822;2023-03-14T20:51:30;0.73;;;0.60;;
2564;SDS011;1292;48.020;7.822;2023-03-14T20:53:57;2.33;;;0.90;;
2564;SDS011;1292;48.020;7.822;2023-03-14T20:56:24;3.13;;;1.87;;
2564;SDS011;1292;48.020;7.822;2023-03-14T20:58:51;1.53;;;1.10;;
2564;SDS011;1292;48.020;7.822;2023-03-14T21:01:17;2.00;;;1.27;;
2564;SDS011;1292;48.020;7.822;2023-03-14T21:03:44;1.53;;;1.20;;
2564;SDS011;1292;48.020;7.822;2023-03-14T21:06:13;3.40;;;1.27;;
2564;SDS011;1292;48.020;7.822;2023-03-14T21:08:39;1.23;;;1.03;;
2564;SDS011;1292;48.020;7.822;2023-03-14T21:11:07;3.27;;;1.53;;
2564;SDS011;1292;48.020;7.822;2023-03-14T21:13:34;5.80;;;4.00;;
2564;SDS011;1292;48.020;7.822;2023-03-14T21:16:02;1.30;;;1.10;;
2564;SDS011;1292;48.020;7.822;2023-03-14T21:18:29;2.17;;;1.10;;
2564;SDS011;1292;48.020;7.822;2023-03-14T21:20:56;1.17;;;1.07;;
2564;SDS011;1292;48.020;7.822;2023-03-14T21:23:25;2.53;;;1.23;;
2564;SDS011;1292;48.020;7.822;2023-03-14T21:25:52;1.63;;;1.53;;
2564;SDS011;1292;48.020;7.822;2023-03-14T21:28:20;3.33;;;1.63;;
2564;SDS011;1292;48.020;7.822;2023-03-14T21:30:47;0.80;;;0.80;;
2564;SDS011;1292;48.020;7.822;2023-03-14T21:33:14;2.90;;;1.87;;
2564;SDS011;1292;48.020;7.822;2023-03-14T21:35:41;2.57;;;1.10;;
2564;SDS011;1292;48.020;7.822;2023-03-14T21:38:08;0.93;;;0.50;;
2564;SDS011;1292;48.020;7.822;2023-03-14T21:40:36;2.00;;;0.87;;
2564;SDS011;1292;48.020;7.822;2023-03-14T21:43:03;1.20;;;1.10;;
2564;SDS011;1292;48.020;7.822;2023-03-14T21:45:30;1.50;;;1.00;;
2564;SDS011;1292;48.020;7.822;2023-03-14T21:47:59;1.63;;;1.10;;
2564;SDS011;1292;48.020;7.822;2023-03-14T21:50:27;1.93;;;1.03;;
2564;SDS011;1292;48.020;7.822;2023-03-14T21:52:54;1.23;;;1.00;;
2564;SDS011;1292;48.020;7.822;2023-03-14T21:55:22;1.60;;;1.17;;
2564;SDS011;1292;48.020;7.822;2023-03-14T21:57:52;4.00;;;1.10;;
